sensor_id;sensor_type;location;lat;lon;timestamp;temperature;humidity
41668;DHT22;27356;50.920;5.350;2023-07-29T00:01:31;20.30;99.90
41668;DHT22;27356;50.920;5.350;2023-07-29T00:03:56;20.40;99.90
41668;DHT22;27356;50.920;5.350;2023-07-29T00:06:23;20.30;99.90
41668;DHT22;27356;50.920;5.350;2023-07-29T00:08:49;20.30;99.90
41668;DHT22;27356;50.920;5.350;2023-07-29T00:11:15;20.30;99.90
41668;DHT22;27356;50.920;5.350;2023-07-29T00:13:40;20.30;99.90
41668;DHT22;27356;50.920;5.350;2023-07-29T00:16:06;20.30;99.90
41668;DHT22;27356;50.920;5.350;2023-07-29T00:18:32;20.30;99.90
41668;DHT22;27356;50.920;5.350;2023-07-29T00:20:58;20.30;99.90
41668;DHT22;27356;50.920;5.350;2023-07-29T00:23:23;20.30;99.90
41668;DHT22;27356;50.920;5.350;2023-07-29T00:25:49;20.30;99.90
41668;DHT22;27356;50.920;5.350;2023-07-29T00:28:15;20.40;99.90
41668;DHT22;27356;50.920;5.350;2023-07-29T00:30:41;20.40;99.90
41668;DHT22;27356;50.920;5.350;2023-07-29T00:33:06;20.30;99.90
41668;DHT22;27356;50.920;5.350;2023-07-29T00:35:32;20.30;99.90
41668;DHT22;27356;50.920;5.350;2023-07-29T00:37:58;20.40;99.90
41668;DHT22;27356;50.920;5.350;2023-07-29T00:40:23;20.40;99.90
41668;DHT22;27356;50.920;5.350;2023-07-29T00:42:49;20.30;99.90
41668;DHT22;27356;50.920;5.350;2023-07-29T00:45:16;20.30;99.90
41668;DHT22;27356;50.920;5.350;2023-07-29T00:47:42;20.40;99.90
41668;DHT22;27356;50.920;5.350;2023-07-29T00:50:10;20.30;99.90
41668;DHT22;27356;50.920;5.350;2023-07-29T00:52:36;20.30;99.90
41668;DHT22;27356;50.920;5.350;2023-07-29T00:55:03;20.30;99.90
41668;DHT22;27356;50.920;5.350;2023-07-29T00:57:30;20.40;99.90
41668;DHT22;27356;50.920;5.350;2023-07-29T00:59:56;20.30;99.90
41668;DHT22;27356;50.920;5.350;2023-07-29T01:02:22;20.20;99.90
41668;DHT22;27356;50.920;5.350;2023-07-29T01:04:55;20.30;99.90
41668;DHT22;27356;50.920;5.350;2023-07-29T01:10:03;20.40;99.90
41668;DHT22;27356;50.920;5.350;2023-07-29T01:12:42;20.30;99.90
41668;DHT22;27356;50.920;5.350;2023-07-29T01:15:25;20.30;99.90
41668;DHT22;27356;50.920;5.350;2023-07-29T01:18:21;20.20;99.90
41668;DHT22;27356;50.920;5.350;2023-07-29T01:20:48;20.20;99.90
41668;DHT22;27356;50.920;5.350;2023-07-29T01:23:16;20.20;99.90
41668;DHT22;27356;50.920;5.350;2023-07-29T01:25:41;20.20;99.90
41668;DHT22;27356;50.920;5.350;2023-07-29T01:28:07;20.30;99.90
41668;DHT22;27356;50.920;5.350;2023-07-29T01:30:39;20.30;99.90
41668;DHT22;27356;50.920;5.350;2023-07-29T01:33:20;20.30;99.90
41668;DHT22;27356;50.920;5.350;2023-07-29T01:35:54;20.30;99.90
41668;DHT22;27356;50.920;5.350;2023-07-29T01:38:33;20.30;99.90
41668;DHT22;27356;50.920;5.350;2023-07-29T01:41:06;20.20;99.90
41668;DHT22;27356;50.920;5.350;2023-07-29T01:43:33;20.30;99.90
41668;DHT22;27356;50.920;5.350;2023-07-29T01:46:00;20.30;99.90
41668;DHT22;27356;50.920;5.350;2023-07-29T01:48:26;20.30;99.90
41668;DHT22;27356;50.920;5.350;2023-07-29T01:50:54;20.10;99.90
41668;DHT22;27356;50.920;5.350;2023-07-29T01:53:19;20.20;99.90
41668;DHT22;27356;50.920;5.350;2023-07-29T01:55:45;20.10;99.90
41668;DHT22;27356;50.920;5.350;2023-07-29T01:58:11;20.10;99.90
41668;DHT22;27356;50.920;5.350;2023-07-29T02:00:37;20.00;99.90
41668;DHT22;27356;50.920;5.350;2023-07-29T02:03:02;19.90;99.90
41668;DHT22;27356;50.920;5.350;2023-07-29T02:05:28;19.80;99.90
41668;DHT22;27356;50.920;5.350;2023-07-29T02:07:54;19.80;99.90
41668;DHT22;27356;50.920;5.350;2023-07-29T02:10:19;19.80;99.90
41668;DHT22;27356;50.920;5.350;2023-07-29T02:12:45;19.70;99.90
41668;DHT22;27356;50.920;5.350;2023-07-29T02:15:11;19.50;99.90
41668;DHT22;27356;50.920;5.350;2023-07-29T02:17:36;19.40;99.90
41668;DHT22;27356;50.920;5.350;2023-07-29T02:20:03;19.50;99.90
41668;DHT22;27356;50.920;5.350;2023-07-29T02:22:29;19.50;99.90
41668;DHT22;27356;50.920;5.350;2023-07-29T02:24:55;19.30;99.90
41668;DHT22;27356;50.920;5.350;2023-07-29T02:27:21;19.40;99.90
41668;DHT22;27356;50.920;5.350;2023-07-29T02:29:46;19.30;99.90
41668;DHT22;27356;50.920;5.350;2023-07-29T02:32:12;19.10;99.90
41668;DHT22;27356;50.920;5.350;2023-07-29T02:34:38;19.10;99.90
41668;DHT22;27356;50.920;5.350;2023-07-29T02:37:06;19.00;99.90
41668;DHT22;27356;50.920;5.350;2023-07-29T02:39:32;18.90;99.90
41668;DHT22;27356;50.920;5.350;2023-07-29T02:41:58;18.90;99.90
41668;DHT22;27356;50.920;5.350;2023-07-29T02:44:25;18.90;99.90
41668;DHT22;27356;50.920;5.350;2023-07-29T02:46:50;18.90;99.90
41668;DHT22;27356;50.920;5.350;2023-07-29T02:49:17;18.90;99.90
41668;DHT22;27356;50.920;5.350;2023-07-29T02:51:43;19.00;99.90
41668;DHT22;27356;50.920;5.350;2023-07-29T02:54:09;18.90;99.90
41668;DHT22;27356;50.920;5.350;2023-07-29T02:56:34;18.90;99.90
41668;DHT22;27356;50.920;5.350;2023-07-29T02:59:00;18.90;99.90
41668;DHT22;27356;50.920;5.350;2023-07-29T03:01:26;19.00;99.90
41668;DHT22;27356;50.920;5.350;2023-07-29T03:03:52;18.90;99.90
41668;DHT22;27356;50.920;5.350;2023-07-29T03:06:18;18.80;99.90
41668;DHT22;27356;50.920;5.350;2023-07-29T03:08:44;18.80;99.90
41668;DHT22;27356;50.920;5.350;2023-07-29T03:11:12;18.80;99.90
41668;DHT22;27356;50.920;5.350;2023-07-29T03:13:38;18.60;99.90
41668;DHT22;27356;50.920;5.350;2023-07-29T03:16:15;18.50;99.90
41668;DHT22;27356;50.920;5.350;2023-07-29T03:18:42;18.50;99.90
41668;DHT22;27356;50.920;5.350;2023-07-29T03:21:08;18.50;99.90
41668;DHT22;27356;50.920;5.350;2023-07-29T03:23:34;18.40;99.90
41668;DHT22;27356;50.920;5.350;2023-07-29T03:26:01;18.40;99.90
41668;DHT22;27356;50.920;5.350;2023-07-29T03:28:32;18.50;99.90
41668;DHT22;27356;50.920;5.350;2023-07-29T03:30:58;18.50;99.90
41668;DHT22;27356;50.920;5.350;2023-07-29T03:33:25;18.40;99.90
41668;DHT22;27356;50.920;5.350;2023-07-29T03:35:52;18.30;99.90
41668;DHT22;27356;50.920;5.350;2023-07-29T03:38:18;18.30;99.90
41668;DHT22;27356;50.920;5.350;2023-07-29T03:40:44;18.30;99.90
41668;DHT22;27356;50.920;5.350;2023-07-29T03:43:10;18.30;99.90
41668;DHT22;27356;50.920;5.350;2023-07-29T03:45:36;18.20;99.90
41668;DHT22;27356;50.920;5.350;2023-07-29T03:48:02;18.30;99.90
41668;DHT22;27356;50.920;5.350;2023-07-29T03:50:29;18.30;99.90
41668;DHT22;27356;50.920;5.350;2023-07-29T03:52:56;18.30;99.90
41668;DHT22;27356;50.920;5.350;2023-07-29T03:55:22;18.20;99.90
41668;DHT22;27356;50.920;5.350;2023-07-29T03:57:47;18.30;99.90
41668;DHT22;27356;50.920;5.350;2023-07-29T04:00:13;18.30;99.90
41668;DHT22;27356;50.920;5.350;2023-07-29T04:02:39;18.30;99.90
41668;DHT22;27356;50.920;5.350;2023-07-29T04:05:06;18.20;99.90
41668;DHT22;27356;50.920;5.350;2023-07-29T04:07:37;18.20;99.90
41668;DHT22;27356;50.920;5.350;2023-07-29T04:10:03;18.10;99.90
41668;DHT22;27356;50.920;5.350;2023-07-29T04:12:30;18.10;99.90
41668;DHT22;27356;50.920;5.350;2023-07-29T04:14:56;18.10;99.90
41668;DHT22;27356;50.920;5.350;2023-07-29T04:17:21;18.20;99.90
41668;DHT22;27356;50.920;5.350;2023-07-29T04:19:47;18.10;99.90
41668;DHT22;27356;50.920;5.350;2023-07-29T04:22:13;18.10;99.90
41668;DHT22;27356;50.920;5.350;2023-07-29T04:24:39;18.10;99.90
41668;DHT22;27356;50.920;5.350;2023-07-29T04:27:05;18.20;99.90
41668;DHT22;27356;50.920;5.350;2023-07-29T04:29:31;18.10;99.90
41668;DHT22;27356;50.920;5.350;2023-07-29T04:31:56;18.20;99.90
41668;DHT22;27356;50.920;5.350;2023-07-29T04:34:22;18.20;99.90
41668;DHT22;27356;50.920;5.350;2023-07-29T04:36:48;18.20;99.90
41668;DHT22;27356;50.920;5.350;2023-07-29T04:39:14;18.20;99.90
41668;DHT22;27356;50.920;5.350;2023-07-29T04:41:39;18.20;99.90
41668;DHT22;27356;50.920;5.350;2023-07-29T04:44:05;18.20;99.90
41668;DHT22;27356;50.920;5.350;2023-07-29T04:46:31;18.30;99.90
41668;DHT22;27356;50.920;5.350;2023-07-29T04:48:56;18.20;99.90
41668;DHT22;27356;50.920;5.350;2023-07-29T04:51:22;18.20;99.90
41668;DHT22;27356;50.920;5.350;2023-07-29T04:53:48;18.30;99.90
41668;DHT22;27356;50.920;5.350;2023-07-29T04:56:14;18.30;99.90
41668;DHT22;27356;50.920;5.350;2023-07-29T04:58:39;18.40;99.90
41668;DHT22;27356;50.920;5.350;2023-07-29T05:01:06;18.30;99.90
41668;DHT22;27356;50.920;5.350;2023-07-29T05:03:31;18.20;99.90
41668;DHT22;27356;50.920;5.350;2023-07-29T05:05:58;18.20;99.90
41668;DHT22;27356;50.920;5.350;2023-07-29T05:08:28;18.10;99.90
41668;DHT22;27356;50.920;5.350;2023-07-29T05:10:54;18.20;99.90
41668;DHT22;27356;50.920;5.350;2023-07-29T05:13:20;18.10;99.90
41668;DHT22;27356;50.920;5.350;2023-07-29T05:15:47;18.20;99.90
41668;DHT22;27356;50.920;5.350;2023-07-29T05:18:14;18.30;99.90
41668;DHT22;27356;50.920;5.350;2023-07-29T05:20:40;18.30;99.90
41668;DHT22;27356;50.920;5.350;2023-07-29T05:23:06;18.30;99.90
41668;DHT22;27356;50.920;5.350;2023-07-29T05:25:32;18.40;99.90
41668;DHT22;27356;50.920;5.350;2023-07-29T05:28:02;18.50;99.90
41668;DHT22;27356;50.920;5.350;2023-07-29T05:30:29;18.60;99.90
41668;DHT22;27356;50.920;5.350;2023-07-29T05:33:00;18.80;99.90
41668;DHT22;27356;50.920;5.350;2023-07-29T05:35:26;19.00;99.90
41668;DHT22;27356;50.920;5.350;2023-07-29T05:37:52;19.10;99.90
41668;DHT22;27356;50.920;5.350;2023-07-29T05:40:17;19.20;99.90
41668;DHT22;27356;50.920;5.350;2023-07-29T05:42:43;19.30;99.90
41668;DHT22;27356;50.920;5.350;2023-07-29T05:45:10;19.40;99.90
41668;DHT22;27356;50.920;5.350;2023-07-29T05:47:36;19.50;99.90
41668;DHT22;27356;50.920;5.350;2023-07-29T05:50:02;19.50;99.90
41668;DHT22;27356;50.920;5.350;2023-07-29T05:52:32;19.70;99.90
41668;DHT22;27356;50.920;5.350;2023-07-29T05:54:58;19.80;99.90
41668;DHT22;27356;50.920;5.350;2023-07-29T05:57:24;20.00;99.90
41668;DHT22;27356;50.920;5.350;2023-07-29T05:59:49;20.00;99.90
41668;DHT22;27356;50.920;5.350;2023-07-29T06:02:15;19.90;99.90
41668;DHT22;27356;50.920;5.350;2023-07-29T06:04:40;20.00;99.90
41668;DHT22;27356;50.920;5.350;2023-07-29T06:07:06;20.10;99.90
41668;DHT22;27356;50.920;5.350;2023-07-29T06:09:32;20.30;99.90
41668;DHT22;27356;50.920;5.350;2023-07-29T06:11:58;20.50;99.90
41668;DHT22;27356;50.920;5.350;2023-07-29T06:14:23;20.40;99.90
41668;DHT22;27356;50.920;5.350;2023-07-29T06:16:49;20.30;99.90
41668;DHT22;27356;50.920;5.350;2023-07-29T06:19:15;20.40;99.90
41668;DHT22;27356;50.920;5.350;2023-07-29T06:21:40;20.90;99.90
41668;DHT22;27356;50.920;5.350;2023-07-29T06:24:06;21.40;99.90
41668;DHT22;27356;50.920;5.350;2023-07-29T06:26:31;22.20;99.90
41668;DHT22;27356;50.920;5.350;2023-07-29T06:28:57;22.10;99.90
41668;DHT22;27356;50.920;5.350;2023-07-29T06:31:23;22.50;99.90
41668;DHT22;27356;50.920;5.350;2023-07-29T06:33:49;22.70;99.90
41668;DHT22;27356;50.920;5.350;2023-07-29T06:36:15;23.20;99.90
41668;DHT22;27356;50.920;5.350;2023-07-29T06:38:40;23.30;99.90
41668;DHT22;27356;50.920;5.350;2023-07-29T06:41:07;23.80;99.90
41668;DHT22;27356;50.920;5.350;2023-07-29T06:43:33;24.10;99.90
41668;DHT22;27356;50.920;5.350;2023-07-29T06:45:58;24.10;99.90
41668;DHT22;27356;50.920;5.350;2023-07-29T06:48:24;24.10;99.90
41668;DHT22;27356;50.920;5.350;2023-07-29T06:50:50;24.00;99.90
41668;DHT22;27356;50.920;5.350;2023-07-29T06:53:16;23.80;99.90
41668;DHT22;27356;50.920;5.350;2023-07-29T06:55:42;24.10;99.90
41668;DHT22;27356;50.920;5.350;2023-07-29T06:58:08;24.60;99.90
41668;DHT22;27356;50.920;5.350;2023-07-29T07:00:34;25.30;99.90
41668;DHT22;27356;50.920;5.350;2023-07-29T07:03:00;25.80;99.90
41668;DHT22;27356;50.920;5.350;2023-07-29T07:05:25;25.40;99.90
41668;DHT22;27356;50.920;5.350;2023-07-29T07:07:51;25.40;99.90
41668;DHT22;27356;50.920;5.350;2023-07-29T07:10:17;26.40;99.90
41668;DHT22;27356;50.920;5.350;2023-07-29T07:12:42;27.20;99.90
41668;DHT22;27356;50.920;5.350;2023-07-29T07:15:08;27.10;99.30
41668;DHT22;27356;50.920;5.350;2023-07-29T07:17:34;26.50;99.90
41668;DHT22;27356;50.920;5.350;2023-07-29T07:20:00;26.70;99.90
41668;DHT22;27356;50.920;5.350;2023-07-29T07:22:25;26.20;99.90
41668;DHT22;27356;50.920;5.350;2023-07-29T07:24:51;26.20;99.90
41668;DHT22;27356;50.920;5.350;2023-07-29T07:27:17;25.70;99.90
41668;DHT22;27356;50.920;5.350;2023-07-29T07:29:42;25.40;99.90
41668;DHT22;27356;50.920;5.350;2023-07-29T07:32:08;24.90;99.90
41668;DHT22;27356;50.920;5.350;2023-07-29T07:34:33;24.80;99.90
41668;DHT22;27356;50.920;5.350;2023-07-29T07:37:00;24.40;99.90
41668;DHT22;27356;50.920;5.350;2023-07-29T07:39:26;24.10;99.90
41668;DHT22;27356;50.920;5.350;2023-07-29T07:41:51;24.00;99.90
41668;DHT22;27356;50.920;5.350;2023-07-29T07:44:17;24.10;99.90
41668;DHT22;27356;50.920;5.350;2023-07-29T07:46:45;24.50;99.90
41668;DHT22;27356;50.920;5.350;2023-07-29T07:49:19;25.00;99.90
41668;DHT22;27356;50.920;5.350;2023-07-29T07:51:45;24.90;99.90
41668;DHT22;27356;50.920;5.350;2023-07-29T07:54:11;25.30;99.90
41668;DHT22;27356;50.920;5.350;2023-07-29T07:56:36;25.20;99.90
41668;DHT22;27356;50.920;5.350;2023-07-29T07:59:02;25.40;99.90
41668;DHT22;27356;50.920;5.350;2023-07-29T08:01:28;25.20;99.90
41668;DHT22;27356;50.920;5.350;2023-07-29T08:03:59;25.40;99.90
41668;DHT22;27356;50.920;5.350;2023-07-29T08:06:25;25.40;99.90
41668;DHT22;27356;50.920;5.350;2023-07-29T08:08:50;25.20;99.90
41668;DHT22;27356;50.920;5.350;2023-07-29T08:11:16;25.50;99.90
41668;DHT22;27356;50.920;5.350;2023-07-29T08:13:42;26.00;99.90
41668;DHT22;27356;50.920;5.350;2023-07-29T08:16:07;25.80;99.90
41668;DHT22;27356;50.920;5.350;2023-07-29T08:18:33;25.80;99.90
41668;DHT22;27356;50.920;5.350;2023-07-29T08:21:00;25.70;99.70
41668;DHT22;27356;50.920;5.350;2023-07-29T08:23:35;25.70;99.90
41668;DHT22;27356;50.920;5.350;2023-07-29T08:26:05;25.60;99.90
41668;DHT22;27356;50.920;5.350;2023-07-29T08:28:35;25.70;99.90
41668;DHT22;27356;50.920;5.350;2023-07-29T08:31:02;25.60;99.90
41668;DHT22;27356;50.920;5.350;2023-07-29T08:33:28;25.30;99.90
41668;DHT22;27356;50.920;5.350;2023-07-29T08:35:54;25.00;99.90
41668;DHT22;27356;50.920;5.350;2023-07-29T08:38:20;25.00;99.90
41668;DHT22;27356;50.920;5.350;2023-07-29T08:40:54;25.00;99.90
41668;DHT22;27356;50.920;5.350;2023-07-29T08:43:28;25.10;99.90
41668;DHT22;27356;50.920;5.350;2023-07-29T08:45:54;25.20;99.90
41668;DHT22;27356;50.920;5.350;2023-07-29T08:48:27;25.80;99.90
41668;DHT22;27356;50.920;5.350;2023-07-29T08:50:55;26.90;99.60
41668;DHT22;27356;50.920;5.350;2023-07-29T08:53:21;27.10;97.40
41668;DHT22;27356;50.920;5.350;2023-07-29T08:55:47;26.90;97.30
41668;DHT22;27356;50.920;5.350;2023-07-29T08:58:13;26.80;97.10
41668;DHT22;27356;50.920;5.350;2023-07-29T09:00:39;27.10;98.40
41668;DHT22;27356;50.920;5.350;2023-07-29T09:03:06;27.40;97.30
41668;DHT22;27356;50.920;5.350;2023-07-29T09:05:33;27.60;97.40
41668;DHT22;27356;50.920;5.350;2023-07-29T09:08:01;27.80;97.60
41668;DHT22;27356;50.920;5.350;2023-07-29T09:10:27;27.80;97.10
41668;DHT22;27356;50.920;5.350;2023-07-29T09:12:53;27.70;96.30
41668;DHT22;27356;50.920;5.350;2023-07-29T09:15:29;28.00;96.70
41668;DHT22;27356;50.920;5.350;2023-07-29T09:17:57;28.00;96.00
41668;DHT22;27356;50.920;5.350;2023-07-29T09:20:27;28.00;95.90
41668;DHT22;27356;50.920;5.350;2023-07-29T09:22:58;27.80;95.60
41668;DHT22;27356;50.920;5.350;2023-07-29T09:25:29;27.50;96.00
41668;DHT22;27356;50.920;5.350;2023-07-29T09:28:02;27.30;96.70
41668;DHT22;27356;50.920;5.350;2023-07-29T09:30:32;27.50;96.40
41668;DHT22;27356;50.920;5.350;2023-07-29T09:32:58;27.60;97.60
41668;DHT22;27356;50.920;5.350;2023-07-29T09:35:27;28.10;95.40
41668;DHT22;27356;50.920;5.350;2023-07-29T09:37:53;27.70;95.30
41668;DHT22;27356;50.920;5.350;2023-07-29T09:40:19;27.30;95.20
41668;DHT22;27356;50.920;5.350;2023-07-29T09:42:53;27.10;95.80
41668;DHT22;27356;50.920;5.350;2023-07-29T09:45:26;26.90;95.80
41668;DHT22;27356;50.920;5.350;2023-07-29T09:47:53;26.50;96.40
41668;DHT22;27356;50.920;5.350;2023-07-29T09:50:23;26.50;97.40
41668;DHT22;27356;50.920;5.350;2023-07-29T09:52:50;26.70;96.20
41668;DHT22;27356;50.920;5.350;2023-07-29T09:55:23;26.80;97.50
41668;DHT22;27356;50.920;5.350;2023-07-29T09:57:59;27.20;96.80
41668;DHT22;27356;50.920;5.350;2023-07-29T10:00:28;27.90;96.20
41668;DHT22;27356;50.920;5.350;2023-07-29T10:02:54;28.30;96.40
41668;DHT22;27356;50.920;5.350;2023-07-29T10:05:22;28.40;96.40
41668;DHT22;27356;50.920;5.350;2023-07-29T10:07:49;29.00;96.10
41668;DHT22;27356;50.920;5.350;2023-07-29T10:10:16;29.30;94.90
41668;DHT22;27356;50.920;5.350;2023-07-29T10:12:43;29.60;94.80
41668;DHT22;27356;50.920;5.350;2023-07-29T10:15:09;29.70;93.30
41668;DHT22;27356;50.920;5.350;2023-07-29T10:17:36;30.10;93.20
41668;DHT22;27356;50.920;5.350;2023-07-29T10:20:07;29.70;92.90
41668;DHT22;27356;50.920;5.350;2023-07-29T10:22:39;29.20;94.60
41668;DHT22;27356;50.920;5.350;2023-07-29T10:25:17;29.30;94.20
41668;DHT22;27356;50.920;5.350;2023-07-29T10:27:49;29.00;93.80
41668;DHT22;27356;50.920;5.350;2023-07-29T10:30:17;28.70;93.90
41668;DHT22;27356;50.920;5.350;2023-07-29T10:32:44;28.40;94.30
41668;DHT22;27356;50.920;5.350;2023-07-29T10:35:11;28.50;94.50
41668;DHT22;27356;50.920;5.350;2023-07-29T10:37:38;28.40;94.90
41668;DHT22;27356;50.920;5.350;2023-07-29T10:40:06;28.50;95.10
41668;DHT22;27356;50.920;5.350;2023-07-29T10:42:32;28.70;94.50
41668;DHT22;27356;50.920;5.350;2023-07-29T10:44:58;29.00;93.70
41668;DHT22;27356;50.920;5.350;2023-07-29T10:47:26;28.80;93.60
41668;DHT22;27356;50.920;5.350;2023-07-29T10:50:00;28.50;93.30
41668;DHT22;27356;50.920;5.350;2023-07-29T10:55:01;28.10;94.70
41668;DHT22;27356;50.920;5.350;2023-07-29T10:57:35;28.10;94.70
41668;DHT22;27356;50.920;5.350;2023-07-29T11:00:02;27.50;95.10
41668;DHT22;27356;50.920;5.350;2023-07-29T11:02:35;27.00;96.40
41668;DHT22;27356;50.920;5.350;2023-07-29T11:05:26;26.70;96.30
41668;DHT22;27356;50.920;5.350;2023-07-29T11:07:51;26.80;97.80
41668;DHT22;27356;50.920;5.350;2023-07-29T11:10:17;26.50;99.00
41668;DHT22;27356;50.920;5.350;2023-07-29T11:12:50;26.70;99.60
41668;DHT22;27356;50.920;5.350;2023-07-29T11:15:28;26.50;99.00
41668;DHT22;27356;50.920;5.350;2023-07-29T11:17:55;26.60;99.00
41668;DHT22;27356;50.920;5.350;2023-07-29T11:20:29;26.30;98.90
41668;DHT22;27356;50.920;5.350;2023-07-29T11:22:57;26.30;98.80
41668;DHT22;27356;50.920;5.350;2023-07-29T11:25:25;26.20;99.20
41668;DHT22;27356;50.920;5.350;2023-07-29T11:27:55;26.30;99.40
41668;DHT22;27356;50.920;5.350;2023-07-29T11:30:21;25.90;99.90
41668;DHT22;27356;50.920;5.350;2023-07-29T11:32:57;25.20;99.90
41668;DHT22;27356;50.920;5.350;2023-07-29T11:35:24;24.90;99.90
41668;DHT22;27356;50.920;5.350;2023-07-29T11:37:53;24.60;99.90
41668;DHT22;27356;50.920;5.350;2023-07-29T11:40:20;24.50;99.90
41668;DHT22;27356;50.920;5.350;2023-07-29T11:42:48;24.20;99.90
41668;DHT22;27356;50.920;5.350;2023-07-29T11:45:15;24.00;99.90
41668;DHT22;27356;50.920;5.350;2023-07-29T11:47:41;23.70;99.90
41668;DHT22;27356;50.920;5.350;2023-07-29T11:50:08;23.60;99.90
41668;DHT22;27356;50.920;5.350;2023-07-29T11:52:38;23.40;99.90
41668;DHT22;27356;50.920;5.350;2023-07-29T11:55:05;23.20;99.90
41668;DHT22;27356;50.920;5.350;2023-07-29T11:57:35;23.20;99.90
41668;DHT22;27356;50.920;5.350;2023-07-29T12:00:09;23.20;99.90
41668;DHT22;27356;50.920;5.350;2023-07-29T12:02:40;23.10;99.90
41668;DHT22;27356;50.920;5.350;2023-07-29T12:05:06;23.10;99.90
41668;DHT22;27356;50.920;5.350;2023-07-29T12:07:33;23.00;99.90
41668;DHT22;27356;50.920;5.350;2023-07-29T12:09:59;23.00;99.90
41668;DHT22;27356;50.920;5.350;2023-07-29T12:12:25;23.00;99.90
41668;DHT22;27356;50.920;5.350;2023-07-29T12:14:51;22.80;99.90
41668;DHT22;27356;50.920;5.350;2023-07-29T12:17:16;22.90;99.90
41668;DHT22;27356;50.920;5.350;2023-07-29T12:19:43;22.80;99.90
41668;DHT22;27356;50.920;5.350;2023-07-29T12:22:10;22.90;99.90
41668;DHT22;27356;50.920;5.350;2023-07-29T12:24:41;22.90;99.90
41668;DHT22;27356;50.920;5.350;2023-07-29T12:27:12;23.00;99.90
41668;DHT22;27356;50.920;5.350;2023-07-29T12:29:42;22.70;99.90
41668;DHT22;27356;50.920;5.350;2023-07-29T12:32:08;22.30;99.90
41668;DHT22;27356;50.920;5.350;2023-07-29T12:34:35;22.10;99.90
41668;DHT22;27356;50.920;5.350;2023-07-29T12:37:03;22.10;99.90
41668;DHT22;27356;50.920;5.350;2023-07-29T12:39:31;21.90;99.90
41668;DHT22;27356;50.920;5.350;2023-07-29T12:41:58;21.60;99.90
41668;DHT22;27356;50.920;5.350;2023-07-29T12:44:29;21.40;99.90
41668;DHT22;27356;50.920;5.350;2023-07-29T12:46:55;21.40;99.90
41668;DHT22;27356;50.920;5.350;2023-07-29T12:49:20;21.70;99.90
41668;DHT22;27356;50.920;5.350;2023-07-29T12:51:49;21.90;99.90
41668;DHT22;27356;50.920;5.350;2023-07-29T12:54:14;22.10;99.90
41668;DHT22;27356;50.920;5.350;2023-07-29T12:56:40;22.10;99.90
41668;DHT22;27356;50.920;5.350;2023-07-29T12:59:06;22.40;99.90
41668;DHT22;27356;50.920;5.350;2023-07-29T13:01:31;22.70;99.90
41668;DHT22;27356;50.920;5.350;2023-07-29T13:03:57;22.90;99.90
41668;DHT22;27356;50.920;5.350;2023-07-29T13:06:23;22.90;99.90
41668;DHT22;27356;50.920;5.350;2023-07-29T13:08:49;23.10;99.90
41668;DHT22;27356;50.920;5.350;2023-07-29T13:11:17;22.70;99.90
41668;DHT22;27356;50.920;5.350;2023-07-29T13:13:43;23.00;99.90
41668;DHT22;27356;50.920;5.350;2023-07-29T13:16:11;23.10;99.90
41668;DHT22;27356;50.920;5.350;2023-07-29T13:18:36;23.40;99.90
41668;DHT22;27356;50.920;5.350;2023-07-29T13:21:02;23.70;99.90
41668;DHT22;27356;50.920;5.350;2023-07-29T13:23:28;24.30;99.90
41668;DHT22;27356;50.920;5.350;2023-07-29T13:25:55;24.60;99.90
41668;DHT22;27356;50.920;5.350;2023-07-29T13:28:21;24.70;99.90
41668;DHT22;27356;50.920;5.350;2023-07-29T13:30:46;24.60;99.90
41668;DHT22;27356;50.920;5.350;2023-07-29T13:33:12;24.40;99.90
41668;DHT22;27356;50.920;5.350;2023-07-29T13:35:38;24.30;99.90
41668;DHT22;27356;50.920;5.350;2023-07-29T13:38:04;24.20;99.90
41668;DHT22;27356;50.920;5.350;2023-07-29T13:40:30;24.20;99.90
41668;DHT22;27356;50.920;5.350;2023-07-29T13:42:55;23.80;99.90
41668;DHT22;27356;50.920;5.350;2023-07-29T13:45:21;23.70;99.90
41668;DHT22;27356;50.920;5.350;2023-07-29T13:47:48;23.50;99.90
41668;DHT22;27356;50.920;5.350;2023-07-29T13:50:14;23.30;99.90
41668;DHT22;27356;50.920;5.350;2023-07-29T13:52:39;23.20;99.90
41668;DHT22;27356;50.920;5.350;2023-07-29T13:55:05;23.20;99.90
41668;DHT22;27356;50.920;5.350;2023-07-29T13:57:32;23.20;99.90
41668;DHT22;27356;50.920;5.350;2023-07-29T13:59:58;23.20;99.90
41668;DHT22;27356;50.920;5.350;2023-07-29T14:02:24;23.30;99.90
41668;DHT22;27356;50.920;5.350;2023-07-29T14:04:51;23.40;99.90
41668;DHT22;27356;50.920;5.350;2023-07-29T14:07:17;23.50;99.90
41668;DHT22;27356;50.920;5.350;2023-07-29T14:09:43;23.50;99.90
41668;DHT22;27356;50.920;5.350;2023-07-29T14:12:08;23.70;99.90
41668;DHT22;27356;50.920;5.350;2023-07-29T14:14:38;23.80;99.90
41668;DHT22;27356;50.920;5.350;2023-07-29T14:17:04;24.00;99.90
41668;DHT22;27356;50.920;5.350;2023-07-29T14:19:30;24.10;99.90
41668;DHT22;27356;50.920;5.350;2023-07-29T14:21:56;24.10;99.90
41668;DHT22;27356;50.920;5.350;2023-07-29T14:24:22;23.90;99.90
41668;DHT22;27356;50.920;5.350;2023-07-29T14:26:51;24.00;99.90
41668;DHT22;27356;50.920;5.350;2023-07-29T14:29:16;24.10;99.90
41668;DHT22;27356;50.920;5.350;2023-07-29T14:31:42;24.20;99.90
41668;DHT22;27356;50.920;5.350;2023-07-29T14:34:07;24.30;99.90
41668;DHT22;27356;50.920;5.350;2023-07-29T14:36:33;24.50;99.90
41668;DHT22;27356;50.920;5.350;2023-07-29T14:38:59;24.80;99.90
41668;DHT22;27356;50.920;5.350;2023-07-29T14:41:24;25.00;99.90
41668;DHT22;27356;50.920;5.350;2023-07-29T14:43:50;25.00;99.90
41668;DHT22;27356;50.920;5.350;2023-07-29T14:46:16;25.00;99.90
41668;DHT22;27356;50.920;5.350;2023-07-29T14:48:41;25.40;99.90
41668;DHT22;27356;50.920;5.350;2023-07-29T14:51:07;25.60;99.90
41668;DHT22;27356;50.920;5.350;2023-07-29T14:53:33;25.70;99.90
41668;DHT22;27356;50.920;5.350;2023-07-29T14:55:58;25.70;99.90
41668;DHT22;27356;50.920;5.350;2023-07-29T14:58:24;25.60;99.90
41668;DHT22;27356;50.920;5.350;2023-07-29T15:00:53;25.50;99.90
41668;DHT22;27356;50.920;5.350;2023-07-29T15:03:19;25.20;99.90
41668;DHT22;27356;50.920;5.350;2023-07-29T15:05:45;25.00;99.90
41668;DHT22;27356;50.920;5.350;2023-07-29T15:08:11;25.10;99.90
41668;DHT22;27356;50.920;5.350;2023-07-29T15:10:36;25.10;99.90
41668;DHT22;27356;50.920;5.350;2023-07-29T15:13:03;25.10;99.90
41668;DHT22;27356;50.920;5.350;2023-07-29T15:15:28;25.10;99.90
41668;DHT22;27356;50.920;5.350;2023-07-29T15:17:54;25.10;99.90
41668;DHT22;27356;50.920;5.350;2023-07-29T15:20:20;25.20;99.90
41668;DHT22;27356;50.920;5.350;2023-07-29T15:22:46;25.30;99.90
41668;DHT22;27356;50.920;5.350;2023-07-29T15:25:12;25.20;99.90
41668;DHT22;27356;50.920;5.350;2023-07-29T15:27:38;25.00;99.90
41668;DHT22;27356;50.920;5.350;2023-07-29T15:30:08;25.10;99.90
41668;DHT22;27356;50.920;5.350;2023-07-29T15:32:34;25.00;99.90
41668;DHT22;27356;50.920;5.350;2023-07-29T15:35:00;24.90;99.90